createdAt,value
2018-12-02T00:02:00.472Z,97370.00
2018-12-02T00:04:30.282Z,97362.77
2018-12-02T00:07:00.054Z,97360.79
2018-12-02T00:09:29.870Z,97364.52
2018-12-02T00:11:59.580Z,97362.27
2018-12-02T00:14:29.380Z,97363.23
2018-12-02T00:16:59.111Z,97357.95
2018-12-02T00:19:28.902Z,97359.30
2018-12-02T00:21:58.569Z,97355.14
2018-12-02T00:24:28.366Z,97345.77
2018-12-02T00:26:58.189Z,97345.19
2018-12-02T00:29:27.972Z,97342.86
2018-12-02T00:31:57.729Z,97337.42
2018-12-02T00:34:27.461Z,97338.06
2018-12-02T00:36:57.361Z,97336.98
2018-12-02T00:39:27.131Z,97328.31
2018-12-02T00:41:58.076Z,97322.59
2018-12-02T00:44:27.792Z,97321.20
2018-12-02T00:46:57.461Z,97331.70
2018-12-02T00:49:27.273Z,97331.86
2018-12-02T00:51:56.949Z,97340.63
2018-12-02T00:54:26.633Z,97338.50
2018-12-02T00:56:56.359Z,97336.77
2018-12-02T00:59:26.091Z,97339.66
2018-12-02T01:01:55.880Z,97346.02
2018-12-02T01:04:25.590Z,97351.94
2018-12-02T01:06:55.393Z,97352.33
2018-12-02T01:09:25.001Z,97349.83
2018-12-02T01:11:54.708Z,97347.70
2018-12-02T01:14:24.489Z,97342.81
2018-12-02T01:16:54.256Z,97339.94
2018-12-02T01:19:23.942Z,97331.13
2018-12-02T01:21:53.681Z,97334.85
2018-12-02T01:24:23.505Z,97337.52
2018-12-02T01:26:53.346Z,97334.36
2018-12-02T01:29:23.122Z,97339.48
2018-12-02T01:31:52.956Z,97325.98
2018-12-02T01:34:22.717Z,97334.43
2018-12-02T01:36:52.437Z,97326.70
2018-12-02T01:39:22.129Z,97323.62
2018-12-02T01:41:51.833Z,97311.17
2018-12-02T01:44:21.576Z,97312.08
2018-12-02T01:46:51.428Z,97309.97
2018-12-02T01:49:21.097Z,97310.78
2018-12-02T01:51:50.885Z,97315.94
2018-12-02T01:54:20.593Z,97304.73
2018-12-02T01:56:50.297Z,97302.98
2018-12-02T01:59:20.072Z,97301.84
2018-12-02T02:01:49.849Z,97304.68
2018-12-02T02:04:19.553Z,97312.77
2018-12-02T02:06:49.381Z,97307.55
2018-12-02T02:09:19.036Z,97309.56
2018-12-02T02:11:48.764Z,97305.86
2018-12-02T02:14:18.444Z,97314.32
2018-12-02T02:16:48.169Z,97304.86
2018-12-02T02:19:17.847Z,97300.72
2018-12-02T02:21:47.457Z,97303.81
2018-12-02T02:24:17.114Z,97306.40
2018-12-02T02:26:46.798Z,97309.84
2018-12-02T02:29:16.582Z,97298.91
2018-12-02T02:31:46.189Z,97296.35
2018-12-02T02:34:15.929Z,97288.14
2018-12-02T02:36:45.625Z,97282.06
2018-12-02T02:39:15.485Z,97279.91
2018-12-02T02:41:45.310Z,97277.77
2018-12-02T02:44:15.109Z,97260.64
2018-12-02T02:46:44.904Z,97263.03
2018-12-02T02:49:14.658Z,97262.73
2018-12-02T02:51:44.434Z,97256.45
2018-12-02T02:54:14.209Z,97257.73
2018-12-02T02:56:43.915Z,97251.59
2018-12-02T02:59:13.800Z,97249.90
2018-12-02T03:01:43.686Z,97241.09
2018-12-02T03:04:13.525Z,97251.11
2018-12-02T03:06:43.325Z,97256.87
2018-12-02T03:09:13.209Z,97251.14
2018-12-02T03:11:43.041Z,97254.60
2018-12-02T03:14:12.844Z,97249.37
2018-12-02T03:16:42.619Z,97250.23
2018-12-02T03:19:12.349Z,97247.62
2018-12-02T03:21:42.134Z,97246.33
2018-12-02T03:24:11.853Z,97255.47
2018-12-02T03:26:41.612Z,97253.66
2018-12-02T03:29:11.411Z,97250.69
2018-12-02T03:31:40.922Z,97244.00
2018-12-02T03:34:10.638Z,97244.78
2018-12-02T03:36:40.305Z,97237.05
2018-12-02T03:39:09.993Z,97233.20
2018-12-02T03:41:39.977Z,97233.83
2018-12-02T03:44:09.785Z,97240.08
2018-12-02T03:46:39.600Z,97230.97
2018-12-02T03:49:09.336Z,97227.29
2018-12-02T03:51:39.049Z,97224.27
2018-12-02T03:54:08.782Z,97214.22
2018-12-02T03:56:38.617Z,97211.47
2018-12-02T03:59:08.357Z,97210.02
2018-12-02T04:01:38.162Z,97211.86
2018-12-02T04:04:07.929Z,97202.63
2018-12-02T04:06:37.787Z,97206.89
2018-12-02T04:09:09.651Z,97209.27
2018-12-02T04:11:39.656Z,97205.98
2018-12-02T04:14:09.473Z,97215.08
2018-12-02T04:16:39.109Z,97216.97
2018-12-02T04:19:08.909Z,97221.80
2018-12-02T04:21:38.705Z,97220.48
2018-12-02T04:24:08.517Z,97224.80
2018-12-02T04:26:38.334Z,97218.17
2018-12-02T04:29:08.073Z,97229.66
2018-12-02T04:31:37.903Z,97232.40
2018-12-02T04:34:07.698Z,97247.55
2018-12-02T04:36:37.524Z,97253.48
2018-12-02T04:39:08.925Z,97249.91
2018-12-02T04:41:38.732Z,97251.29
2018-12-02T04:44:08.506Z,97242.59
2018-12-02T04:46:38.264Z,97234.81
2018-12-02T04:49:08.025Z,97226.84
2018-12-02T04:51:37.834Z,97221.08
2018-12-02T04:54:07.611Z,97213.35
2018-12-02T04:56:37.364Z,97213.92
2018-12-02T04:59:07.207Z,97210.48
2018-12-02T05:01:36.913Z,97218.06
2018-12-02T05:04:06.929Z,97214.91
2018-12-02T05:06:36.711Z,97209.52
2018-12-02T05:09:07.883Z,97205.59
2018-12-02T05:11:37.628Z,97207.45
2018-12-02T05:14:07.361Z,97194.67
2018-12-02T05:16:37.149Z,97190.27
2018-12-02T05:19:06.876Z,97194.30
2018-12-02T05:21:36.703Z,97189.27
2018-12-02T05:24:06.572Z,97186.83
2018-12-02T05:26:36.356Z,97176.78
2018-12-02T05:29:06.071Z,97174.80
2018-12-02T05:31:35.846Z,97175.53
2018-12-02T05:34:05.653Z,97174.18
2018-12-02T05:36:35.505Z,97176.17
2018-12-02T05:39:07.632Z,97182.58
2018-12-02T05:41:42.724Z,97180.47
2018-12-02T05:44:18.968Z,97182.70
2018-12-02T05:46:48.734Z,97176.70
2018-12-02T05:49:18.440Z,97176.06
2018-12-02T05:51:48.285Z,97174.59
2018-12-02T05:54:18.069Z,97176.68
2018-12-02T05:56:47.797Z,97175.46
2018-12-02T05:59:17.589Z,97168.05
2018-12-02T06:01:47.433Z,97173.09
2018-12-02T06:04:17.236Z,97165.23
2018-12-02T06:06:47.065Z,97159.97
2018-12-02T06:09:16.837Z,97159.23
2018-12-02T06:11:46.682Z,97165.36
2018-12-02T06:14:16.597Z,97158.63
2018-12-02T06:16:46.146Z,97163.64
2018-12-02T06:19:15.845Z,97153.10
2018-12-02T06:21:45.516Z,97150.41
2018-12-02T06:24:15.158Z,97150.50
2018-12-02T06:26:44.933Z,97153.20
2018-12-02T06:29:14.456Z,97154.91
2018-12-02T06:31:44.058Z,97149.03
2018-12-02T06:34:13.752Z,97145.81
2018-12-02T06:36:43.751Z,97152.20
2018-12-02T06:39:13.666Z,97155.51
2018-12-02T06:41:43.506Z,97152.08
2018-12-02T06:44:13.433Z,97149.60
2018-12-02T06:46:43.161Z,97148.86
2018-12-02T06:49:12.895Z,97153.64
2018-12-02T06:51:42.678Z,97156.47
2018-12-02T06:54:12.411Z,97156.47
2018-12-02T06:56:42.228Z,97157.29
2018-12-02T06:59:19.396Z,97147.98
2018-12-02T07:01:56.424Z,97141.25
2018-12-02T07:38:53.047Z,97144.45
2018-12-02T07:41:22.811Z,97146.88
2018-12-02T07:43:52.620Z,97140.16
2018-12-02T07:46:22.561Z,97130.40
2018-12-02T07:48:52.322Z,97125.97
2018-12-02T07:51:22.073Z,97120.11
2018-12-02T07:53:51.821Z,97122.94
2018-12-02T07:56:22.141Z,97120.11
2018-12-02T07:58:51.852Z,97113.79
2018-12-02T08:01:21.569Z,97114.19
2018-12-02T08:03:51.198Z,97111.15
2018-12-02T08:06:21.112Z,97097.68
2018-12-02T08:08:50.848Z,97090.55
2018-12-02T08:11:20.644Z,97091.50
2018-12-02T08:13:50.366Z,97092.72
2018-12-02T08:16:20.115Z,97087.53
2018-12-02T08:18:49.913Z,97096.58
2018-12-02T08:21:19.644Z,97093.14
2018-12-02T08:23:49.469Z,97092.77
2018-12-02T08:26:19.380Z,97094.85
2018-12-02T08:28:49.224Z,97092.52
2018-12-02T08:31:19.157Z,97090.01
2018-12-02T08:33:48.990Z,97098.16
2018-12-02T08:36:18.746Z,97094.87
2018-12-02T08:38:48.537Z,97095.31
2018-12-02T08:41:18.361Z,97109.38
2018-12-02T08:43:48.212Z,97103.05
2018-12-02T08:46:17.954Z,97102.72
2018-12-02T08:48:47.702Z,97092.26
2018-12-02T08:51:17.670Z,97091.95
2018-12-02T08:53:47.241Z,97088.09
2018-12-02T08:56:17.103Z,97089.73
2018-12-02T08:58:46.893Z,97093.44
2018-12-02T09:01:16.641Z,97093.38
2018-12-02T09:03:46.379Z,97085.60
2018-12-02T09:06:16.221Z,97079.63
2018-12-02T09:08:45.999Z,97081.47
2018-12-02T09:11:15.859Z,97076.56
2018-12-02T09:13:45.583Z,97082.72
2018-12-02T09:16:15.259Z,97088.23
2018-12-02T09:18:45.029Z,97070.29
2018-12-02T09:21:14.761Z,97069.89
2018-12-02T09:23:47.441Z,97071.89
2018-12-02T09:26:14.422Z,97068.81
2018-12-02T09:28:44.165Z,97070.16
2018-12-02T09:31:14.191Z,97078.02
2018-12-02T09:33:44.083Z,97072.41
2018-12-02T09:36:13.881Z,97072.96
2018-12-02T09:38:43.732Z,97075.55
2018-12-02T09:41:13.529Z,97069.18
2018-12-02T09:43:43.348Z,97059.44
2018-12-02T09:46:13.161Z,97059.73
2018-12-02T09:48:43.462Z,97069.70
2018-12-02T09:51:13.494Z,97063.11
2018-12-02T09:53:44.152Z,97066.77
2018-12-02T09:56:15.041Z,97058.14
2018-12-02T09:58:45.323Z,97059.84
2018-12-02T10:01:15.117Z,97060.60
2018-12-02T10:03:45.376Z,97052.56
2018-12-02T10:06:16.280Z,97060.13
2018-12-02T10:08:46.308Z,97052.09
2018-12-02T10:11:16.641Z,97033.31
2018-12-02T10:13:47.141Z,97024.98
2018-12-02T10:16:17.367Z,97018.22
2018-12-02T10:18:47.464Z,97015.32
2018-12-02T10:21:17.540Z,97025.68
2018-12-02T10:23:47.295Z,97017.05
2018-12-02T10:26:17.474Z,97014.48
2018-12-02T10:28:47.641Z,97005.45
2018-12-02T10:31:17.826Z,96988.69
2018-12-02T10:33:47.856Z,96989.13
2018-12-02T10:36:18.133Z,96983.48
2018-12-02T10:38:48.153Z,96979.78
2018-12-02T10:41:17.973Z,96972.98
2018-12-02T10:43:47.725Z,96962.98
2018-12-02T10:46:18.234Z,96971.33
2018-12-02T10:48:48.849Z,96966.05
2018-12-02T10:51:19.033Z,96956.55
2018-12-02T10:53:49.120Z,96953.77
2018-12-02T10:56:19.686Z,96957.78
2018-12-02T10:58:49.687Z,96960.64
2018-12-02T11:01:20.110Z,96945.33
2018-12-02T11:03:50.500Z,96944.67
2018-12-02T11:06:20.857Z,96944.20
2018-12-02T11:08:50.697Z,96950.31
2018-12-02T11:11:20.787Z,96954.22
2018-12-02T11:13:51.233Z,96947.05
2018-12-02T11:16:21.281Z,96948.39
2018-12-02T11:18:52.324Z,96950.97
2018-12-02T11:21:23.290Z,96943.28
2018-12-02T11:23:53.597Z,96945.02
2018-12-02T11:26:23.553Z,96941.37
2018-12-02T11:28:54.091Z,96937.74
2018-12-02T11:31:24.160Z,96933.25
2018-12-02T11:33:54.444Z,96932.86
2018-12-02T11:36:25.248Z,96934.09
2018-12-02T11:38:55.293Z,96926.05
2018-12-02T11:41:25.730Z,96924.71
2018-12-02T11:43:56.298Z,96918.88
2018-12-02T11:46:26.573Z,96914.86
2018-12-02T11:48:57.120Z,96902.80
2018-12-02T11:51:27.349Z,96903.67
2018-12-02T11:53:57.496Z,96894.77
2018-12-02T11:56:27.677Z,96896.11
2018-12-02T11:58:57.717Z,96900.52
2018-12-02T12:01:27.731Z,96902.80
2018-12-02T12:03:57.856Z,96897.44
2018-12-02T12:06:28.340Z,96888.54
2018-12-02T12:08:59.617Z,96888.94
2018-12-02T12:11:29.661Z,96879.08
2018-12-02T12:13:59.453Z,96877.34
2018-12-02T12:16:29.277Z,96854.58
2018-12-02T12:18:59.629Z,96857.73
2018-12-02T12:21:30.089Z,96856.89
2018-12-02T12:24:00.920Z,96845.67
2018-12-02T12:26:30.660Z,96845.20
2018-12-02T12:29:01.011Z,96834.12
2018-12-02T12:31:31.321Z,96842.99
2018-12-02T12:34:01.274Z,96826.08
2018-12-02T12:36:32.057Z,96827.78
2018-12-02T12:39:01.914Z,96828.77
2018-12-02T12:41:33.532Z,96826.08
2018-12-02T12:44:03.665Z,96819.38
2018-12-02T12:46:34.060Z,96811.34
2018-12-02T12:49:04.610Z,96817.53
2018-12-02T12:51:39.716Z,96811.82
2018-12-02T12:54:06.117Z,96798.03
2018-12-02T12:56:36.253Z,96808.75
2018-12-02T12:59:06.681Z,96811.77
2018-12-02T13:01:36.718Z,96798.78
2018-12-02T13:05:33.400Z,96809.61
2018-12-02T13:08:02.970Z,96798.43
2018-12-02T13:10:33.432Z,96805.11
2018-12-02T13:13:03.301Z,96800.87
2018-12-02T13:15:32.805Z,96799.59
2018-12-02T13:18:03.089Z,96800.82
2018-12-02T13:20:34.202Z,96798.53
2018-12-02T13:23:03.768Z,96794.29
2018-12-02T13:25:33.932Z,96785.38
2018-12-02T13:28:03.636Z,96785.30
2018-12-02T13:30:33.156Z,96787.76
2018-12-02T13:33:02.667Z,96781.81
2018-12-02T13:35:32.181Z,96789.85
2018-12-02T13:38:01.667Z,96783.79
2018-12-02T13:40:31.212Z,96800.37
2018-12-02T13:43:01.997Z,96788.09
2018-12-02T13:45:32.460Z,96784.82
2018-12-02T13:48:02.646Z,96780.91
2018-12-02T13:50:32.202Z,96774.97
2018-12-02T13:53:01.788Z,96769.61
2018-12-02T13:55:32.066Z,96756.69
2018-12-02T13:58:02.105Z,96754.59
2018-12-02T14:00:32.059Z,96766.97
2018-12-02T14:03:06.412Z,96767.57
2018-12-02T14:05:36.757Z,96771.41
2018-12-02T14:08:06.262Z,96778.94
2018-12-02T14:10:35.838Z,96775.55
2018-12-02T14:13:10.198Z,96782.99
2018-12-02T14:15:45.373Z,96779.45
2018-12-02T14:18:29.844Z,96773.33
2018-12-02T14:20:59.630Z,96775.90
2018-12-02T14:23:29.537Z,96776.29
2018-12-02T14:26:03.229Z,96781.70
2018-12-02T14:28:44.798Z,96779.13
2018-12-02T14:31:14.842Z,96776.88
2018-12-02T14:33:44.668Z,96767.81
2018-12-02T14:36:14.461Z,96759.38
2018-12-02T14:38:44.257Z,96759.38
2018-12-02T14:41:14.500Z,96750.58
2018-12-02T14:43:44.016Z,96753.58
2018-12-02T14:46:13.654Z,96754.69
2018-12-02T14:48:43.294Z,96747.11
2018-12-02T14:51:13.301Z,96745.27
2018-12-02T14:53:43.162Z,96734.89
2018-12-02T14:56:12.700Z,96740.05
2018-12-02T14:58:42.368Z,96735.44
2018-12-02T15:01:11.905Z,96724.59
2018-12-02T15:03:41.426Z,96725.82
2018-12-02T15:06:10.944Z,96713.28
2018-12-02T15:08:41.787Z,96709.64
2018-12-02T15:11:10.062Z,96710.87
2018-12-02T15:13:39.604Z,96717.45
2018-12-02T15:16:09.109Z,96712.95
2018-12-02T15:18:38.657Z,96697.61
2018-12-02T15:21:08.245Z,96692.72
2018-12-02T15:23:37.755Z,96704.44
2018-12-02T15:26:07.760Z,96699.91
2018-12-02T15:28:37.313Z,96701.63
2018-12-02T15:31:06.897Z,96700.17
2018-12-02T15:33:37.699Z,96709.09
2018-12-02T15:36:06.497Z,96705.53
2018-12-02T15:38:36.189Z,96705.92
2018-12-02T15:41:06.350Z,96705.81
2018-12-02T15:43:35.884Z,96718.63
2018-12-02T15:46:05.701Z,96708.37
2018-12-02T15:48:35.493Z,96712.78
2018-12-02T15:51:05.076Z,96719.84
2018-12-02T15:53:34.696Z,96729.23
2018-12-02T15:56:04.234Z,96736.72
2018-12-02T15:58:34.878Z,96730.76
2018-12-02T16:01:04.810Z,96738.21
2018-12-02T16:03:35.053Z,96738.21
2018-12-02T16:06:04.792Z,96726.41
2018-12-02T16:08:37.266Z,96699.59
2018-12-02T16:11:06.889Z,96695.92
2018-12-02T16:13:36.455Z,96717.27
2018-12-02T16:16:06.709Z,96702.50
2018-12-02T16:18:36.330Z,96709.72
2018-12-02T16:21:06.129Z,96710.55
2018-12-02T16:23:36.577Z,96705.10
2018-12-02T16:26:06.443Z,96708.14
2018-12-02T16:28:36.011Z,96700.95
2018-12-02T16:31:05.643Z,96690.10
2018-12-02T16:33:35.201Z,96685.13
2018-12-02T16:36:04.720Z,96699.38
2018-12-02T16:38:34.248Z,96716.34
2018-12-02T16:41:03.823Z,96705.99
2018-12-02T16:43:33.376Z,96700.63
2018-12-02T16:46:02.965Z,96707.22
2018-12-02T16:48:32.509Z,96720.98
2018-12-02T16:51:02.159Z,96720.16
2018-12-02T16:53:39.153Z,96717.34
2018-12-02T16:56:11.640Z,96721.38
2018-12-02T16:59:01.346Z,96726.27
2018-12-02T17:01:33.013Z,96714.55
2018-12-02T17:04:03.507Z,96717.11
2018-12-02T17:06:33.078Z,96716.75
2018-12-02T17:09:02.677Z,96709.45
2018-12-02T17:11:32.201Z,96701.39
2018-12-02T17:14:01.854Z,96688.72
2018-12-02T17:16:31.593Z,96677.13
2018-12-02T17:19:01.198Z,96696.30
2018-12-02T17:21:41.994Z,96693.02
2018-12-02T17:24:12.967Z,96693.02
2018-12-02T17:26:42.545Z,96703.23
2018-12-02T17:29:13.762Z,96710.81
2018-12-02T17:31:49.692Z,96708.87
2018-12-02T17:34:19.229Z,96700.83
2018-12-02T17:36:48.783Z,96697.28
2018-12-02T17:39:28.196Z,96697.28
2018-12-02T17:42:01.033Z,96709.73
2018-12-02T17:44:31.101Z,96707.41
2018-12-02T17:47:00.722Z,96697.93
2018-12-02T17:49:30.262Z,96698.67
2018-12-02T17:51:59.905Z,96706.22
2018-12-02T17:54:29.551Z,96708.42
2018-12-02T17:56:59.103Z,96704.39
2018-12-02T17:59:28.706Z,96715.52
2018-12-02T18:01:58.274Z,96712.33
2018-12-02T18:04:28.192Z,96714.05
2018-12-02T18:06:57.695Z,96727.00
2018-12-02T18:09:27.392Z,96726.48
2018-12-02T18:11:56.917Z,96713.06
2018-12-02T18:14:26.516Z,96726.40
2018-12-02T18:16:56.085Z,96719.18
2018-12-02T18:19:25.846Z,96695.89
2018-12-02T18:21:56.230Z,96689.56
2018-12-02T18:24:25.815Z,96698.45
2018-12-02T18:26:55.354Z,96683.69
2018-12-02T18:29:24.881Z,96690.78
2018-12-02T18:31:54.411Z,96688.09
2018-12-02T18:34:23.960Z,96690.78
2018-12-02T18:36:54.159Z,96689.44
2018-12-02T18:39:23.777Z,96693.47
2018-12-02T18:41:54.522Z,96694.81
2018-12-02T18:44:24.046Z,96695.16
2018-12-02T18:46:53.649Z,96695.29
2018-12-02T18:49:23.637Z,96708.71
2018-12-02T18:51:53.530Z,96703.73
2018-12-02T18:54:23.149Z,96706.77
2018-12-02T18:56:52.713Z,96713.95
2018-12-02T18:59:22.257Z,96713.00
2018-12-02T19:01:51.829Z,96710.31
2018-12-02T19:04:21.377Z,96721.53
2018-12-02T19:06:50.887Z,96719.33
2018-12-02T19:09:20.457Z,96724.69
2018-12-02T19:11:50.004Z,96719.71
2018-12-02T19:14:19.537Z,96731.31
2018-12-02T19:16:49.329Z,96734.00
2018-12-02T19:19:18.851Z,96729.85
2018-12-02T19:21:48.445Z,96735.34
2018-12-02T19:24:17.992Z,96730.34
2018-12-02T19:26:48.247Z,96728.17
2018-12-02T19:29:18.097Z,96733.90
2018-12-02T19:31:47.662Z,96727.58
2018-12-02T19:34:17.172Z,96730.87
2018-12-02T19:36:54.482Z,96728.67
2018-12-02T19:39:24.027Z,96722.44
2018-12-02T19:41:53.545Z,96727.72
2018-12-02T19:44:23.133Z,96725.51
2018-12-02T19:46:52.661Z,96720.49
2018-12-02T19:49:22.177Z,96733.44
2018-12-02T19:51:51.681Z,96739.67
2018-12-02T19:54:21.197Z,96731.02
2018-12-02T19:56:50.701Z,96737.73
2018-12-02T19:59:20.233Z,96730.03
2018-12-02T20:01:49.810Z,96731.02
2018-12-02T20:04:19.294Z,96734.06
2018-12-02T20:06:48.944Z,96727.26
2018-12-02T20:09:18.437Z,96720.91
2018-12-02T20:11:47.990Z,96720.55
2018-12-02T20:14:18.186Z,96729.82
2018-12-02T20:16:47.768Z,96712.84
2018-12-02T20:19:22.385Z,96731.52
2018-12-02T20:21:51.953Z,96732.77
2018-12-02T20:24:26.550Z,96726.89
2018-12-02T20:26:56.075Z,96733.98
2018-12-02T20:29:25.605Z,96720.92
2018-12-02T20:31:55.153Z,96724.95
2018-12-02T20:34:24.652Z,96730.31
2018-12-02T20:36:54.230Z,96732.05
2018-12-02T20:39:23.817Z,96730.13
2018-12-02T20:41:53.377Z,96730.13
2018-12-02T20:44:22.913Z,96735.98
2018-12-02T20:46:52.550Z,96722.44
2018-12-02T20:49:22.165Z,96726.84
2018-12-02T20:51:51.665Z,96720.13
2018-12-02T20:54:21.249Z,96718.31
2018-12-02T20:56:51.003Z,96714.64
2018-12-02T20:59:20.516Z,96716.45
2018-12-02T21:01:50.046Z,96718.55
2018-12-02T21:04:20.230Z,96714.42
2018-12-02T21:06:50.506Z,96710.88
2018-12-02T21:09:20.105Z,96707.46
2018-12-02T21:11:49.601Z,96711.13
2018-12-02T21:14:19.122Z,96695.23
2018-12-02T21:16:48.658Z,96700.13
2018-12-02T21:19:18.197Z,96695.23
2018-12-02T21:21:47.719Z,96691.08
2018-12-02T21:24:17.214Z,96694.28
2018-12-02T21:26:46.774Z,96693.77
2018-12-02T21:29:16.258Z,96702.81
2018-12-02T21:31:45.805Z,96718.55
2018-12-02T21:34:15.393Z,96718.19
2018-12-02T21:36:44.990Z,96714.64
2018-12-02T21:39:14.549Z,96713.68
2018-12-02T21:41:44.127Z,96709.66
2018-12-02T21:44:20.278Z,96692.55
2018-12-02T21:46:49.874Z,96709.05
2018-12-02T21:49:19.383Z,96699.14
2018-12-02T21:51:48.942Z,96705.86
2018-12-02T21:54:18.454Z,96706.72
2018-12-02T21:56:48.425Z,96703.55
2018-12-02T21:59:17.943Z,96707.94
2018-12-02T22:01:47.997Z,96711.97
2018-12-02T22:04:18.093Z,96708.45
2018-12-02T22:06:47.629Z,96706.98
2018-12-02T22:09:17.173Z,96707.11
2018-12-02T22:11:46.676Z,96703.91
2018-12-02T22:14:16.220Z,96712.48
2018-12-02T22:16:45.738Z,96700.48
2018-12-02T22:19:15.292Z,96705.11
2018-12-02T22:21:44.851Z,96705.50
2018-12-02T22:24:14.697Z,96701.95
2018-12-02T22:26:44.697Z,96694.88
2018-12-02T22:29:14.353Z,96687.30
2018-12-02T22:31:43.896Z,96684.74
2018-12-02T22:34:13.372Z,96693.41
2018-12-02T22:36:42.926Z,96680.45
2018-12-02T22:39:12.431Z,96672.88
2018-12-02T22:41:41.937Z,96673.32
2018-12-02T22:44:11.441Z,96671.98
2018-12-02T22:46:40.961Z,96673.45
2018-12-02T22:49:10.450Z,96669.06
2018-12-02T22:51:39.950Z,96679.89
2018-12-02T22:54:09.473Z,96671.48
2018-12-02T22:56:38.972Z,96666.59
2018-12-02T22:59:10.575Z,96668.41
2018-12-02T23:01:48.384Z,96676.12
2018-12-02T23:04:17.910Z,96666.33
2018-12-02T23:06:47.420Z,96662.43
2018-12-02T23:09:16.935Z,96657.19
2018-12-02T23:11:46.486Z,96650.95
2018-12-02T23:14:16.007Z,96661.42
2018-12-02T23:16:55.196Z,96666.80
2018-12-02T23:19:24.718Z,96665.97
2018-12-02T23:21:54.208Z,96665.09
2018-12-02T23:24:24.440Z,96667.91
2018-12-02T23:26:53.265Z,96668.86
2018-12-02T23:29:22.767Z,96662.76
2018-12-02T23:31:52.273Z,96666.43
2018-12-02T23:34:21.860Z,96663.83
2018-12-02T23:36:51.357Z,96656.77
2018-12-02T23:39:20.892Z,96643.47
2018-12-02T23:41:50.399Z,96631.39
2018-12-02T23:44:19.901Z,96618.92
2018-12-02T23:46:49.381Z,96605.16
2018-12-02T23:49:18.897Z,96603.81
2018-12-02T23:51:48.421Z,96620.52
2018-12-02T23:54:17.908Z,96633.94
2018-12-02T23:56:47.381Z,96635.38
2018-12-02T23:59:16.924Z,96645.27
